Time;durP1;ratioP1;P1;durP2;ratioP2;P2;SDS_P1;SDS_P2;PMS_P1;PMS_P2;Temp;Humidity;BMP_temperature;BMP_pressure;BME280_temperature;BME280_humidity;BME280_pressure;Samples;Min_cycle;Max_cycle;Signal;HPM_P1;HPM_P2
2023/03/09 00:00:58;;;;;;;3.47;3.00;;;;;;;;;;5054898;28;20070;-61
2023/03/09 00:03:24;;;;;;;4.03;3.00;;;;;;;;;;5054501;28;20461;-61
2023/03/09 00:05:58;;;;;;;4.55;3.63;;;;;;;;;;5054582;28;20028;-61
2023/03/09 00:08:25;;;;;;;5.00;3.30;;;;;;;;;;5054443;28;20500;-60
2023/03/09 00:10:52;;;;;;;4.63;3.28;;;;;;;;;;5054866;28;20393;-60
2023/03/09 00:13:22;;;;;;;4.80;3.50;;;;;;;;;;5054384;28;20029;-60
2023/03/09 00:15:50;;;;;;;3.90;3.40;;;;;;;;;;5054680;28;20029;-61
2023/03/09 00:18:20;;;;;;;4.25;3.15;;;;;;;;;;5054450;28;20071;-61
2023/03/09 00:20:46;;;;;;;6.35;3.47;;;;;;;;;;5054280;28;20036;-60
2023/03/09 00:23:12;;;;;;;5.00;3.38;;;;;;;;;;5054211;28;20148;-59
2023/03/09 00:25:38;;;;;;;4.78;3.40;;;;;;;;;;5054151;28;20104;-61
2023/03/09 00:28:05;;;;;;;4.53;3.00;;;;;;;;;;5054186;28;20029;-61
2023/03/09 00:30:30;;;;;;;5.53;3.78;;;;;;;;;;5054384;28;20025;-61
2023/03/09 00:32:56;;;;;;;3.85;3.13;;;;;;;;;;5053046;28;20473;-60
2023/03/09 00:35:21;;;;;;;4.28;3.17;;;;;;;;;;5052820;28;20032;-60
2023/03/09 00:37:47;;;;;;;4.90;3.22;;;;;;;;;;5053917;28;20025;-61
2023/03/09 00:40:14;;;;;;;4.43;2.97;;;;;;;;;;5054204;28;20021;-60
2023/03/09 00:42:44;;;;;;;3.35;3.05;;;;;;;;;;5053919;28;20045;-61
2023/03/09 00:45:11;;;;;;;4.80;3.30;;;;;;;;;;5053843;28;20083;-60
2023/03/09 00:47:38;;;;;;;4.97;3.35;;;;;;;;;;5054016;28;20041;-61
2023/03/09 00:50:04;;;;;;;5.35;3.35;;;;;;;;;;5053691;28;20025;-60
2023/03/09 00:52:30;;;;;;;3.78;3.00;;;;;;;;;;5053694;28;20503;-59
2023/03/09 00:54:57;;;;;;;3.25;2.90;;;;;;;;;;5052355;28;20024;-61
2023/03/09 00:57:24;;;;;;;3.85;3.15;;;;;;;;;;5053565;28;20465;-61
2023/03/09 00:59:51;;;;;;;4.40;3.15;;;;;;;;;;5053748;28;20384;-61
2023/03/09 01:02:18;;;;;;;3.97;3.08;;;;;;;;;;5053493;28;20040;-61
2023/03/09 01:04:45;;;;;;;4.38;2.80;;;;;;;;;;5053716;28;20052;-61
2023/03/09 01:07:10;;;;;;;3.70;3.00;;;;;;;;;;5053740;28;20114;-61
2023/03/09 01:09:37;;;;;;;3.65;2.92;;;;;;;;;;5053365;28;20465;-60
2023/03/09 01:12:04;;;;;;;3.95;2.88;;;;;;;;;;5053327;28;20029;-60
2023/03/09 01:14:30;;;;;;;4.32;3.10;;;;;;;;;;5053249;28;20025;-60
2023/03/09 01:16:56;;;;;;;3.85;3.22;;;;;;;;;;5053172;28;20428;-61
2023/03/09 01:19:21;;;;;;;3.33;2.78;;;;;;;;;;5053021;28;20033;-61
2023/03/09 01:21:47;;;;;;;3.88;3.47;;;;;;;;;;5053239;28;20063;-61
2023/03/09 01:24:12;;;;;;;4.18;3.20;;;;;;;;;;5053098;28;20028;-61
2023/03/09 01:26:38;;;;;;;3.40;3.05;;;;;;;;;;5053116;28;20138;-61
2023/03/09 01:29:03;;;;;;;5.32;3.50;;;;;;;;;;5052981;28;20028;-61
2023/03/09 01:31:29;;;;;;;6.03;3.30;;;;;;;;;;5053002;28;20035;-61
2023/03/09 01:33:54;;;;;;;3.63;3.05;;;;;;;;;;5052899;28;20086;-60
2023/03/09 01:36:20;;;;;;;3.42;3.08;;;;;;;;;;5052724;28;20053;-61
2023/03/09 01:38:46;;;;;;;5.63;3.38;;;;;;;;;;5052718;28;20025;-61
2023/03/09 01:41:13;;;;;;;4.38;3.40;;;;;;;;;;5052862;28;20032;-61
2023/03/09 01:43:44;;;;;;;4.68;3.20;;;;;;;;;;5052546;28;20044;-60
2023/03/09 01:46:23;;;;;;;4.00;3.28;;;;;;;;;;5052721;28;20546;-61
2023/03/09 01:49:12;;;;;;;4.35;3.15;;;;;;;;;;5052982;28;20401;-60
2023/03/09 01:52:00;;;;;;;3.40;3.10;;;;;;;;;;5052389;28;20703;-61
2023/03/09 01:54:32;;;;;;;5.38;3.53;;;;;;;;;;5052906;28;20044;-61
2023/03/09 01:57:06;;;;;;;3.78;3.10;;;;;;;;;;5052600;28;20032;-61
2023/03/09 01:59:32;;;;;;;3.05;2.78;;;;;;;;;;5052428;28;20503;-61
2023/03/09 02:02:00;;;;;;;3.88;3.13;;;;;;;;;;5052485;28;20023;-61
2023/03/09 02:04:35;;;;;;;3.85;2.88;;;;;;;;;;5052737;28;20032;-61
2023/03/09 02:07:00;;;;;;;3.67;3.03;;;;;;;;;;5052751;28;20032;-61
2023/03/09 02:10:06;;;;;;;4.13;3.40;;;;;;;;;;5052387;28;20465;-60
2023/03/09 02:12:31;;;;;;;3.53;2.90;;;;;;;;;;5052365;28;20044;-61
2023/03/09 02:14:57;;;;;;;5.80;3.13;;;;;;;;;;5052336;28;20021;-61
2023/03/09 02:17:23;;;;;;;3.38;2.95;;;;;;;;;;5052375;28;20033;-61
2023/03/09 02:19:54;;;;;;;3.58;2.85;;;;;;;;;;5052469;28;20037;-61
2023/03/09 02:22:20;;;;;;;3.97;3.08;;;;;;;;;;5052613;28;20029;-61
2023/03/09 02:24:50;;;;;;;3.55;2.90;;;;;;;;;;5052531;28;20530;-61
2023/03/09 02:27:24;;;;;;;3.70;2.90;;;;;;;;;;5052238;28;20021;-61
2023/03/09 02:29:51;;;;;;;3.92;3.17;;;;;;;;;;5052237;28;20534;-62
2023/03/09 02:32:16;;;;;;;3.15;2.85;;;;;;;;;;5052189;28;20469;-60
2023/03/09 02:34:42;;;;;;;3.22;2.70;;;;;;;;;;5052494;28;20025;-61
2023/03/09 02:37:29;;;;;;;3.67;3.10;;;;;;;;;;5052011;28;20450;-61
2023/03/09 02:40:01;;;;;;;3.40;3.10;;;;;;;;;;5052121;28;20432;-61
2023/03/09 02:42:28;;;;;;;3.47;2.70;;;;;;;;;;5050890;28;20037;-60
2023/03/09 02:44:54;;;;;;;3.67;2.90;;;;;;;;;;5052098;28;20017;-61
2023/03/09 02:47:21;;;;;;;5.05;3.20;;;;;;;;;;5052332;28;20112;-60
2023/03/09 02:49:47;;;;;;;4.07;2.97;;;;;;;;;;5052295;28;20112;-61
2023/03/09 02:52:14;;;;;;;3.85;3.05;;;;;;;;;;5052028;28;20524;-61
2023/03/09 02:54:39;;;;;;;3.90;2.65;;;;;;;;;;5052966;28;20362;-61
2023/03/09 02:57:05;;;;;;;4.63;3.40;;;;;;;;;;5055976;28;20021;-61
2023/03/09 02:59:31;;;;;;;4.80;2.97;;;;;;;;;;5055828;28;20057;-61
2023/03/09 03:01:57;;;;;;;3.50;3.20;;;;;;;;;;5055929;28;20527;-61
2023/03/09 03:04:23;;;;;;;3.95;2.72;;;;;;;;;;5056118;28;20029;-61
2023/03/09 03:06:48;;;;;;;3.70;2.80;;;;;;;;;;5056097;28;20357;-61
2023/03/09 03:09:14;;;;;;;3.25;2.80;;;;;;;;;;5055996;28;20488;-61
2023/03/09 03:11:39;;;;;;;4.15;3.25;;;;;;;;;;5055722;28;20029;-61
2023/03/09 03:14:05;;;;;;;3.28;2.92;;;;;;;;;;5055960;28;20035;-61
2023/03/09 03:16:34;;;;;;;3.22;2.78;;;;;;;;;;5055593;28;20029;-62
2023/03/09 03:18:59;;;;;;;4.07;2.97;;;;;;;;;;5055835;28;20094;-61
2023/03/09 03:21:25;;;;;;;3.85;3.03;;;;;;;;;;5055480;28;20485;-61
2023/03/09 03:23:51;;;;;;;4.50;3.05;;;;;;;;;;5055539;28;20021;-61
2023/03/09 03:26:16;;;;;;;3.95;2.80;;;;;;;;;;5055719;28;20075;-61
2023/03/09 03:28:42;;;;;;;5.40;2.90;;;;;;;;;;5055304;28;20381;-61
2023/03/09 03:31:10;;;;;;;3.60;2.95;;;;;;;;;;5055307;28;20111;-61
2023/03/09 03:33:35;;;;;;;3.50;2.80;;;;;;;;;;5055376;28;20040;-61
2023/03/09 03:36:01;;;;;;;3.80;2.83;;;;;;;;;;5055108;28;20041;-61
2023/03/09 03:38:26;;;;;;;3.65;3.22;;;;;;;;;;5055069;28;20037;-62
2023/03/09 03:40:52;;;;;;;4.05;2.75;;;;;;;;;;5053893;28;20029;-61
2023/03/09 03:43:18;;;;;;;4.47;3.00;;;;;;;;;;5055174;28;20032;-62
2023/03/09 03:45:43;;;;;;;3.75;2.90;;;;;;;;;;5055073;28;20017;-61
2023/03/09 03:48:09;;;;;;;3.47;3.03;;;;;;;;;;5054991;28;20033;-62
2023/03/09 03:50:34;;;;;;;3.30;2.70;;;;;;;;;;5055236;28;20028;-62
2023/03/09 03:53:00;;;;;;;4.20;2.97;;;;;;;;;;5054889;28;20017;-61
2023/03/09 03:55:26;;;;;;;3.60;2.92;;;;;;;;;;5054781;28;20029;-61
2023/03/09 03:57:52;;;;;;;4.70;2.83;;;;;;;;;;5054751;28;20560;-61
2023/03/09 04:00:19;;;;;;;3.08;2.78;;;;;;;;;;5054982;28;20111;-61
2023/03/09 04:02:45;;;;;;;3.85;3.00;;;;;;;;;;5054735;28;20473;-61
2023/03/09 04:05:10;;;;;;;3.25;2.70;;;;;;;;;;5054660;28;20036;-61
2023/03/09 04:07:36;;;;;;;3.70;3.00;;;;;;;;;;5054872;28;20031;-61
2023/03/09 04:10:02;;;;;;;4.93;2.85;;;;;;;;;;5054602;28;20021;-62
2023/03/09 04:12:27;;;;;;;3.63;2.92;;;;;;;;;;5054469;28;20354;-62
2023/03/09 04:14:53;;;;;;;2.97;2.67;;;;;;;;;;5054626;28;20049;-62
2023/03/09 04:17:18;;;;;;;4.97;2.92;;;;;;;;;;5054500;28;20075;-61
2023/03/09 04:19:44;;;;;;;3.53;2.63;;;;;;;;;;5054329;28;20025;-61
2023/03/09 04:22:10;;;;;;;4.35;2.88;;;;;;;;;;5054450;28;20020;-61
2023/03/09 04:24:35;;;;;;;3.38;3.05;;;;;;;;;;5054420;28;20033;-61
2023/03/09 04:27:01;;;;;;;3.08;2.50;;;;;;;;;;5054590;28;20029;-61
2023/03/09 04:29:27;;;;;;;3.28;2.70;;;;;;;;;;5054545;28;20029;-61
2023/03/09 04:31:52;;;;;;;3.90;2.75;;;;;;;;;;5054173;28;20029;-61
2023/03/09 04:34:18;;;;;;;3.05;2.63;;;;;;;;;;5054217;28;20029;-61
2023/03/09 04:36:43;;;;;;;3.42;2.90;;;;;;;;;;5052822;28;20044;-61
2023/03/09 04:39:09;;;;;;;3.30;2.90;;;;;;;;;;5053987;28;20033;-61
2023/03/09 04:41:35;;;;;;;3.50;2.92;;;;;;;;;;5054285;28;20067;-61
2023/03/09 04:44:01;;;;;;;3.25;2.78;;;;;;;;;;5054318;28;20029;-60
2023/03/09 04:46:27;;;;;;;2.70;2.50;;;;;;;;;;5054145;28;20384;-60
2023/03/09 04:48:52;;;;;;;2.83;2.63;;;;;;;;;;5053595;28;20412;-61
2023/03/09 04:51:18;;;;;;;3.67;3.15;;;;;;;;;;5053739;28;20046;-62
2023/03/09 04:53:43;;;;;;;2.97;2.53;;;;;;;;;;5053787;28;20071;-61
2023/03/09 04:56:09;;;;;;;3.05;2.75;;;;;;;;;;5053754;28;20035;-62
2023/03/09 04:58:34;;;;;;;3.80;2.67;;;;;;;;;;5053604;28;20124;-62
2023/03/09 05:01:03;;;;;;;3.15;2.85;;;;;;;;;;5053613;28;20044;-62
2023/03/09 05:03:29;;;;;;;3.35;2.75;;;;;;;;;;5053884;28;20370;-62
2023/03/09 05:05:55;;;;;;;3.55;2.75;;;;;;;;;;5053511;28;20056;-60
2023/03/09 05:08:20;;;;;;;2.80;2.60;;;;;;;;;;5053513;28;20052;-61
2023/03/09 05:10:46;;;;;;;3.55;3.13;;;;;;;;;;5053390;28;20052;-61
2023/03/09 05:13:12;;;;;;;3.33;2.60;;;;;;;;;;5053255;28;20025;-61
2023/03/09 05:15:39;;;;;;;2.90;2.60;;;;;;;;;;5053251;28;20059;-60
2023/03/09 05:18:04;;;;;;;3.10;2.80;;;;;;;;;;5052941;28;20025;-61
2023/03/09 05:20:31;;;;;;;3.88;2.83;;;;;;;;;;5053109;28;20029;-61
2023/03/09 05:22:57;;;;;;;3.65;2.60;;;;;;;;;;5053493;28;20029;-61
2023/03/09 05:25:23;;;;;;;4.10;2.90;;;;;;;;;;5051822;28;20386;-60
2023/03/09 05:27:49;;;;;;;5.07;2.53;;;;;;;;;;5052971;28;20029;-61
2023/03/09 05:30:15;;;;;;;3.17;2.65;;;;;;;;;;5053004;28;20119;-61
2023/03/09 05:32:41;;;;;;;2.92;2.63;;;;;;;;;;5051508;28;20024;-60
2023/03/09 05:35:07;;;;;;;3.13;2.70;;;;;;;;;;5052822;28;20128;-61
2023/03/09 05:37:36;;;;;;;3.35;2.63;;;;;;;;;;5052609;28;20045;-61
2023/03/09 05:40:04;;;;;;;4.18;2.72;;;;;;;;;;5052825;28;20406;-61
2023/03/09 05:42:30;;;;;;;3.15;2.85;;;;;;;;;;5052910;28;20112;-61
2023/03/09 05:44:56;;;;;;;3.72;2.70;;;;;;;;;;5051364;28;20017;-61
2023/03/09 05:47:21;;;;;;;2.80;2.50;;;;;;;;;;5052681;28;20431;-61
2023/03/09 05:49:50;;;;;;;3.63;2.42;;;;;;;;;;5052634;28;20067;-61
2023/03/09 05:52:15;;;;;;;3.85;2.80;;;;;;;;;;5052926;28;20078;-60
2023/03/09 05:54:41;;;;;;;2.58;2.38;;;;;;;;;;5051149;28;20464;-61
2023/03/09 05:57:08;;;;;;;4.22;2.83;;;;;;;;;;5051777;28;20096;-61
2023/03/09 05:59:33;;;;;;;4.50;2.58;;;;;;;;;;5047992;28;20060;-59
2023/03/09 06:01:59;;;;;;;3.42;2.65;;;;;;;;;;5049489;28;20028;-61
2023/03/09 06:04:25;;;;;;;2.60;2.30;;;;;;;;;;5051251;28;20032;-61
2023/03/09 06:06:50;;;;;;;5.70;3.10;;;;;;;;;;5052337;28;20035;-60
2023/03/09 06:09:16;;;;;;;2.72;2.45;;;;;;;;;;5050728;28;20090;-60
2023/03/09 06:11:41;;;;;;;3.50;2.38;;;;;;;;;;5051002;28;20020;-57
2023/03/09 06:14:08;;;;;;;3.03;2.53;;;;;;;;;;5051023;28;20075;-58
2023/03/09 06:16:34;;;;;;;3.97;2.83;;;;;;;;;;5051025;28;20028;-54
2023/03/09 06:18:59;;;;;;;2.58;2.38;;;;;;;;;;5050867;28;20059;-59
2023/03/09 06:21:25;;;;;;;3.10;2.55;;;;;;;;;;5052500;28;20028;-59
2023/03/09 06:23:54;;;;;;;3.22;2.40;;;;;;;;;;5052171;28;20374;-60
2023/03/09 06:26:20;;;;;;;4.72;2.60;;;;;;;;;;5051190;28;20028;-61
2023/03/09 06:28:46;;;;;;;2.95;2.65;;;;;;;;;;5051244;28;20032;-60
2023/03/09 06:31:13;;;;;;;5.40;2.50;;;;;;;;;;5055447;28;20107;-61
2023/03/09 06:33:40;;;;;;;4.20;2.58;;;;;;;;;;5056287;28;20029;-61
2023/03/09 06:36:06;;;;;;;4.20;2.70;;;;;;;;;;5055747;28;20045;-61
2023/03/09 06:38:31;;;;;;;2.58;2.38;;;;;;;;;;5055387;28;20080;-61
2023/03/09 06:40:57;;;;;;;3.00;2.60;;;;;;;;;;5055734;28;20473;-61
2023/03/09 06:43:23;;;;;;;3.72;2.83;;;;;;;;;;5054953;28;20107;-61
2023/03/09 06:45:49;;;;;;;3.47;2.72;;;;;;;;;;5055549;28;20033;-61
2023/03/09 06:48:15;;;;;;;4.07;2.63;;;;;;;;;;5055916;28;20021;-61
2023/03/09 06:50:41;;;;;;;3.15;2.47;;;;;;;;;;5056385;28;20025;-61
2023/03/09 06:53:06;;;;;;;2.92;2.60;;;;;;;;;;5055380;28;20088;-61
2023/03/09 06:55:32;;;;;;;4.10;2.60;;;;;;;;;;5055328;28;20465;-61
2023/03/09 06:57:57;;;;;;;3.97;2.50;;;;;;;;;;5055373;28;20033;-62
2023/03/09 07:00:23;;;;;;;3.08;2.30;;;;;;;;;;5055673;28;20381;-62
2023/03/09 07:02:49;;;;;;;4.22;2.63;;;;;;;;;;5056012;28;20033;-61
2023/03/09 07:05:14;;;;;;;3.00;2.20;;;;;;;;;;5056032;28;20029;-61
2023/03/09 07:07:43;;;;;;;4.68;2.80;;;;;;;;;;5053850;28;20492;-63
2023/03/09 07:10:12;;;;;;;6.88;2.67;;;;;;;;;;5052730;28;20021;-59
2023/03/09 07:12:38;;;;;;;3.60;2.42;;;;;;;;;;5051681;28;20033;-61
2023/03/09 07:15:05;;;;;;;4.05;2.70;;;;;;;;;;5052863;28;20567;-61
2023/03/09 07:17:31;;;;;;;3.97;3.00;;;;;;;;;;5049286;28;20059;-61
2023/03/09 07:19:57;;;;;;;4.30;2.78;;;;;;;;;;5053761;28;20028;-62
2023/03/09 07:22:23;;;;;;;2.80;2.40;;;;;;;;;;5053651;28;20024;-61
2023/03/09 07:24:48;;;;;;;3.58;2.80;;;;;;;;;;5053525;28;20035;-60
2023/03/09 07:27:14;;;;;;;4.63;2.83;;;;;;;;;;5053642;28;20032;-60
2023/03/09 07:29:40;;;;;;;8.90;3.50;;;;;;;;;;5053536;28;20017;-60
2023/03/09 07:32:07;;;;;;;3.08;2.60;;;;;;;;;;5052262;28;20039;-59
2023/03/09 07:34:33;;;;;;;4.18;2.78;;;;;;;;;;5052479;28;20044;-59
2023/03/09 07:37:00;;;;;;;4.00;3.05;;;;;;;;;;5051012;28;20037;-60
2023/03/09 07:39:25;;;;;;;5.13;3.10;;;;;;;;;;5053443;28;20112;-60
2023/03/09 07:41:51;;;;;;;4.82;2.97;;;;;;;;;;5051177;28;20536;-59
2023/03/09 07:44:17;;;;;;;5.97;3.05;;;;;;;;;;5052540;28;20029;-59
2023/03/09 07:46:42;;;;;;;3.30;2.78;;;;;;;;;;5053152;28;20032;-61
2023/03/09 07:49:08;;;;;;;4.00;3.08;;;;;;;;;;5053571;28;20033;-60
2023/03/09 07:51:35;;;;;;;4.43;2.78;;;;;;;;;;5053144;28;20024;-60
2023/03/09 07:54:01;;;;;;;4.35;2.92;;;;;;;;;;5053103;28;20512;-60
2023/03/09 07:56:27;;;;;;;3.65;2.70;;;;;;;;;;5053024;28;20051;-60
2023/03/09 07:58:54;;;;;;;5.63;2.63;;;;;;;;;;5052913;28;20021;-61
2023/03/09 08:01:20;;;;;;;4.60;2.97;;;;;;;;;;5053060;28;20028;-60
2023/03/09 08:03:46;;;;;;;3.08;2.78;;;;;;;;;;5052917;28;20047;-60
2023/03/09 08:06:13;;;;;;;3.65;2.85;;;;;;;;;;5052791;28;20481;-60
2023/03/09 08:08:39;;;;;;;4.65;2.70;;;;;;;;;;5053116;28;20021;-60
2023/03/09 08:11:05;;;;;;;2.92;2.50;;;;;;;;;;5049223;28;20074;-61
2023/03/09 08:13:32;;;;;;;3.30;2.58;;;;;;;;;;5050971;28;20025;-60
2023/03/09 08:16:00;;;;;;;4.32;2.63;;;;;;;;;;5052627;28;20100;-60
2023/03/09 08:18:26;;;;;;;3.22;2.65;;;;;;;;;;5052531;28;20488;-61
2023/03/09 08:20:52;;;;;;;4.20;2.80;;;;;;;;;;5052512;28;20059;-61
2023/03/09 08:23:18;;;;;;;7.00;2.72;;;;;;;;;;5052456;28;20029;-60
2023/03/09 08:25:44;;;;;;;3.40;2.53;;;;;;;;;;5050760;28;20053;-59
2023/03/09 08:28:11;;;;;;;5.82;2.90;;;;;;;;;;5052233;28;20028;-56
2023/03/09 08:30:38;;;;;;;5.22;2.97;;;;;;;;;;5052541;28;20032;-57
2023/03/09 08:33:04;;;;;;;4.43;2.55;;;;;;;;;;5052715;28;20767;-58
2023/03/09 08:35:32;;;;;;;3.58;2.80;;;;;;;;;;5051399;28;20048;-56
2023/03/09 08:37:59;;;;;;;4.82;2.85;;;;;;;;;;5052400;28;20044;-59
2023/03/09 08:40:25;;;;;;;5.18;2.50;;;;;;;;;;5052322;28;20032;-57
2023/03/09 08:42:51;;;;;;;4.20;2.40;;;;;;;;;;5052652;28;20029;-56
2023/03/09 08:45:17;;;;;;;3.60;2.78;;;;;;;;;;5052207;28;20037;-58
2023/03/09 08:47:43;;;;;;;3.03;2.58;;;;;;;;;;5052115;28;20029;-57
2023/03/09 08:50:09;;;;;;;4.65;2.67;;;;;;;;;;5052188;28;20058;-58
2023/03/09 08:52:37;;;;;;;3.25;2.33;;;;;;;;;;5048882;28;20025;-58
2023/03/09 08:55:05;;;;;;;2.85;2.47;;;;;;;;;;5052098;28;20029;-58
2023/03/09 08:57:31;;;;;;;3.55;2.65;;;;;;;;;;5051825;28;20036;-61
2023/03/09 08:59:57;;;;;;;3.88;2.53;;;;;;;;;;5051566;28;20040;-59
2023/03/09 09:02:23;;;;;;;2.67;2.17;;;;;;;;;;5052077;28;20376;-59
2023/03/09 09:04:49;;;;;;;4.85;2.67;;;;;;;;;;5052055;28;20100;-59
2023/03/09 09:07:15;;;;;;;6.72;2.67;;;;;;;;;;5050607;28;20025;-60
2023/03/09 09:09:42;;;;;;;5.50;2.35;;;;;;;;;;5049929;28;20025;-59
2023/03/09 09:12:11;;;;;;;3.72;2.13;;;;;;;;;;5050215;28;20029;-61
2023/03/09 09:14:40;;;;;;;3.53;2.40;;;;;;;;;;5051694;28;20025;-60
2023/03/09 09:17:11;;;;;;;4.47;2.60;;;;;;;;;;5050317;28;20473;-58
2023/03/09 09:19:38;;;;;;;4.20;2.35;;;;;;;;;;5048529;28;20068;-59
2023/03/09 09:22:04;;;;;;;4.32;2.45;;;;;;;;;;5049293;28;20035;-59
2023/03/09 09:24:32;;;;;;;3.25;2.58;;;;;;;;;;5049388;28;20032;-56
2023/03/09 09:26:59;;;;;;;4.60;2.40;;;;;;;;;;5050488;28;20127;-59
2023/03/09 09:29:26;;;;;;;7.20;2.90;;;;;;;;;;5051312;28;20591;-60
2023/03/09 09:31:52;;;;;;;4.30;2.25;;;;;;;;;;5051454;28;20031;-60
2023/03/09 09:34:18;;;;;;;5.57;2.63;;;;;;;;;;5050492;28;20078;-60
2023/03/09 09:36:44;;;;;;;2.90;2.33;;;;;;;;;;5050639;28;20147;-61
2023/03/09 09:39:12;;;;;;;3.13;2.20;;;;;;;;;;5049736;28;20033;-61
2023/03/09 09:41:57;;;;;;;3.90;2.50;;;;;;;;;;5051432;28;20082;-61
2023/03/09 09:44:30;;;;;;;4.07;2.75;;;;;;;;;;5049719;28;20049;-60
2023/03/09 09:47:00;;;;;;;4.55;2.33;;;;;;;;;;5051049;28;20454;-60
2023/03/09 09:49:28;;;;;;;3.38;2.33;;;;;;;;;;5051186;28;20033;-61
2023/03/09 09:52:20;;;;;;;3.03;2.42;;;;;;;;;;5051131;28;20538;-61
2023/03/09 09:54:55;;;;;;;5.13;2.13;;;;;;;;;;5051026;28;20032;-61
2023/03/09 09:57:36;;;;;;;3.53;2.17;;;;;;;;;;5050530;28;20017;-60
2023/03/09 10:00:17;;;;;;;4.18;2.40;;;;;;;;;;5050210;28;20083;-61
2023/03/09 10:03:01;;;;;;;2.30;2.10;;;;;;;;;;5050871;28;20170;-61
2023/03/09 10:06:04;;;;;;;2.65;2.10;;;;;;;;;;5050681;28;20029;-61
2023/03/09 10:08:55;;;;;;;3.53;2.58;;;;;;;;;;5050334;28;20489;-61
2023/03/09 10:11:49;;;;;;;2.92;2.30;;;;;;;;;;5050814;28;20040;-61
2023/03/09 10:14:27;;;;;;;3.25;2.15;;;;;;;;;;5049681;28;20037;-61
2023/03/09 10:16:59;;;;;;;4.18;2.30;;;;;;;;;;5050518;28;20033;-62
2023/03/09 10:19:33;;;;;;;3.85;2.47;;;;;;;;;;5050034;28;20473;-61
2023/03/09 10:22:00;;;;;;;3.05;2.35;;;;;;;;;;5048990;28;20090;-61
2023/03/09 10:24:29;;;;;;;2.20;2.00;;;;;;;;;;5050425;28;20032;-61
2023/03/09 10:27:08;;;;;;;3.80;2.30;;;;;;;;;;5042221;28;20112;-61
2023/03/09 10:29:45;;;;;;;2.83;2.33;;;;;;;;;;5030903;28;20029;-61
2023/03/09 10:32:27;;;;;;;3.50;2.30;;;;;;;;;;5029174;28;20714;-61
2023/03/09 10:35:04;;;;;;;3.33;2.05;;;;;;;;;;5030602;28;20025;-61
2023/03/09 10:37:35;;;;;;;2.83;2.20;;;;;;;;;;5030342;28;20128;-60
2023/03/09 10:40:14;;;;;;;1.98;1.85;;;;;;;;;;5030373;28;20042;-60
2023/03/09 10:42:40;;;;;;;3.28;2.83;;;;;;;;;;5030467;28;20036;-61
2023/03/09 10:45:12;;;;;;;3.90;2.35;;;;;;;;;;5030276;28;20021;-61
2023/03/09 10:47:46;;;;;;;2.60;2.28;;;;;;;;;;5030907;28;20033;-61
2023/03/09 10:50:13;;;;;;;3.22;2.10;;;;;;;;;;5030528;28;20417;-61
2023/03/09 10:52:38;;;;;;;1.80;1.70;;;;;;;;;;5030655;28;20025;-60
2023/03/09 10:55:35;;;;;;;3.25;2.15;;;;;;;;;;5030304;28;20533;-61
2023/03/09 10:58:11;;;;;;;3.22;2.10;;;;;;;;;;5028343;28;20128;-60
2023/03/09 11:00:50;;;;;;;4.78;2.20;;;;;;;;;;5038592;28;20039;-60
2023/03/09 11:03:32;;;;;;;2.53;2.20;;;;;;;;;;5050205;28;20033;-60
2023/03/09 11:06:23;;;;;;;4.28;2.40;;;;;;;;;;5050083;28;20029;-60
2023/03/09 11:09:17;;;;;;;4.07;2.65;;;;;;;;;;5050568;28;20029;-60
2023/03/09 11:11:46;;;;;;;2.20;2.00;;;;;;;;;;5040202;28;20113;-61
2023/03/09 11:14:29;;;;;;;2.67;2.03;;;;;;;;;;5030283;28;20115;-60
2023/03/09 11:17:00;;;;;;;3.08;2.30;;;;;;;;;;5033012;28;20033;-60
2023/03/09 11:19:28;;;;;;;2.55;2.00;;;;;;;;;;5033846;28;20099;-61
2023/03/09 11:21:56;;;;;;;3.00;2.13;;;;;;;;;;5033889;28;20047;-61
2023/03/09 11:24:27;;;;;;;3.20;2.28;;;;;;;;;;5034044;28;20029;-60
2023/03/09 11:27:04;;;;;;;3.67;2.20;;;;;;;;;;5033800;28;20396;-60
2023/03/09 11:29:54;;;;;;;5.00;2.03;;;;;;;;;;5034148;28;20538;-61
2023/03/09 11:32:19;;;;;;;2.90;2.17;;;;;;;;;;5033548;28;20038;-61
2023/03/09 11:34:45;;;;;;;4.07;2.00;;;;;;;;;;5034130;28;20112;-62
2023/03/09 11:37:18;;;;;;;2.15;1.95;;;;;;;;;;5032129;28;20072;-61
2023/03/09 11:39:58;;;;;;;3.40;2.00;;;;;;;;;;5049643;28;20049;-60
2023/03/09 11:42:30;;;;;;;;;;;;;;;;;;5053932;28;20095;-60
2023/03/09 11:44:56;;;;;;;2.78;2.00;;;;;;;;;;5052098;28;19948;-60
2023/03/09 11:47:35;;;;;;;3.20;2.00;;;;;;;;;;5053356;28;20061;-60
2023/03/09 11:50:12;;;;;;;2.80;1.83;;;;;;;;;;5051968;28;20025;-61
2023/03/09 11:52:51;;;;;;;2.15;1.98;;;;;;;;;;5053296;28;20036;-60
2023/03/09 11:55:22;;;;;;;2.70;2.13;;;;;;;;;;5053194;28;20033;-61
2023/03/09 11:57:53;;;;;;;2.60;2.00;;;;;;;;;;5053298;28;20025;-60
2023/03/09 12:00:21;;;;;;;2.35;2.15;;;;;;;;;;5050246;28;20051;-61
2023/03/09 12:03:05;;;;;;;3.67;2.15;;;;;;;;;;5053304;28;20525;-61
2023/03/09 12:05:39;;;;;;;3.42;2.35;;;;;;;;;;5053233;28;20029;-60
2023/03/09 12:08:17;;;;;;;2.63;1.95;;;;;;;;;;5052905;28;20032;-61
2023/03/09 12:10:46;;;;;;;2.30;1.95;;;;;;;;;;5053253;28;20029;-60
2023/03/09 12:13:17;;;;;;;2.58;2.38;;;;;;;;;;5052934;28;20473;-60
2023/03/09 12:16:08;;;;;;;3.03;2.03;;;;;;;;;;5052994;28;20428;-61
2023/03/09 12:18:58;;;;;;;2.92;1.95;;;;;;;;;;5052680;28;20035;-60
2023/03/09 12:21:36;;;;;;;1.90;1.77;;;;;;;;;;5052169;28;20033;-60
2023/03/09 12:24:18;;;;;;;2.72;2.08;;;;;;;;;;5052583;28;20037;-60
2023/03/09 12:26:43;;;;;;;4.65;2.00;;;;;;;;;;5051529;28;20021;-60
2023/03/09 12:29:17;;;;;;;2.63;2.20;;;;;;;;;;5046663;28;20033;-61
2023/03/09 12:31:43;;;;;;;2.40;2.15;;;;;;;;;;5052771;28;20088;-60
2023/03/09 12:34:08;;;;;;;3.85;2.03;;;;;;;;;;5049222;28;20021;-60
2023/03/09 12:36:36;;;;;;;4.38;2.30;;;;;;;;;;5051584;28;20053;-60
2023/03/09 12:39:29;;;;;;;2.33;2.10;;;;;;;;;;5049531;28;20029;-61
2023/03/09 12:41:57;;;;;;;4.18;2.08;;;;;;;;;;5047652;28;20411;-60
2023/03/09 12:44:44;;;;;;;3.40;2.47;;;;;;;;;;5051680;28;20086;-59
2023/03/09 12:47:24;;;;;;;5.75;2.30;;;;;;;;;;5049852;28;20063;-60
2023/03/09 12:49:55;;;;;;;2.83;1.70;;;;;;;;;;5050087;28;20025;-59
2023/03/09 12:52:46;;;;;;;2.35;1.77;;;;;;;;;;5047160;28;20033;-59
2023/03/09 12:55:17;;;;;;;;;;;;;;;;;;5051322;28;20033;-60
2023/03/09 12:57:44;;;;;;;6.70;2.58;;;;;;;;;;5051385;28;19913;-60
2023/03/09 13:00:29;;;;;;;3.33;2.05;;;;;;;;;;5051666;28;20033;-60
2023/03/09 13:03:06;;;;;;;3.08;2.10;;;;;;;;;;5051970;28;20032;-60
2023/03/09 13:05:49;;;;;;;3.95;2.50;;;;;;;;;;5051650;28;20055;-59
2023/03/09 13:08:41;;;;;;;7.47;2.30;;;;;;;;;;5050393;28;20032;-60
2023/03/09 13:11:25;;;;;;;4.80;2.30;;;;;;;;;;5050656;28;20127;-60
2023/03/09 13:13:55;;;;;;;2.33;1.80;;;;;;;;;;5051509;28;20035;-60
2023/03/09 13:16:48;;;;;;;6.93;1.70;;;;;;;;;;5051545;28;20151;-60
2023/03/09 13:19:13;;;;;;;3.78;2.15;;;;;;;;;;5051781;28;20037;-60
2023/03/09 13:21:57;;;;;;;5.38;1.98;;;;;;;;;;5051441;28;20522;-60
2023/03/09 13:24:29;;;;;;;3.05;1.73;;;;;;;;;;5051558;28;20024;-60
2023/03/09 13:27:03;;;;;;;3.28;1.75;;;;;;;;;;5051387;28;20630;-60
2023/03/09 13:29:30;;;;;;;2.92;1.75;;;;;;;;;;5051721;28;20052;-60
2023/03/09 13:31:56;;;;;;;2.53;1.92;;;;;;;;;;5051188;28;20457;-60
2023/03/09 13:34:25;;;;;;;4.45;1.92;;;;;;;;;;5048532;28;20032;-60
2023/03/09 13:36:54;;;;;;;2.20;1.90;;;;;;;;;;5031684;28;20520;-60
2023/03/09 13:39:24;;;;;;;2.33;1.77;;;;;;;;;;5032465;28;20037;-60
2023/03/09 13:41:51;;;;;;;2.60;1.75;;;;;;;;;;5051446;28;20059;-60
2023/03/09 13:44:23;;;;;;;2.90;2.20;;;;;;;;;;5051124;28;20485;-60
2023/03/09 13:46:55;;;;;;;3.55;2.15;;;;;;;;;;5051349;28;20358;-59
2023/03/09 13:49:33;;;;;;;3.25;2.10;;;;;;;;;;5050972;28;20037;-60
2023/03/09 13:52:05;;;;;;;4.03;2.50;;;;;;;;;;5051180;28;20052;-60
2023/03/09 13:54:31;;;;;;;1.80;1.70;;;;;;;;;;5051257;28;20484;-60
2023/03/09 13:57:18;;;;;;;3.50;1.92;;;;;;;;;;5051237;28;20049;-60
2023/03/09 13:59:43;;;;;;;3.72;2.40;;;;;;;;;;5051024;28;20029;-60
2023/03/09 14:02:11;;;;;;;4.28;2.33;;;;;;;;;;5050767;28;20389;-60
2023/03/09 14:04:56;;;;;;;2.53;2.08;;;;;;;;;;5050741;28;20033;-59
2023/03/09 14:07:34;;;;;;;2.72;1.90;;;;;;;;;;5050785;28;20033;-61
2023/03/09 14:10:05;;;;;;;5.47;2.20;;;;;;;;;;5050598;28;20116;-59
2023/03/09 14:12:37;;;;;;;3.97;2.30;;;;;;;;;;5050816;28;20025;-61
2023/03/09 14:15:15;;;;;;;4.93;2.28;;;;;;;;;;5050975;28;20025;-59
2023/03/09 14:17:41;;;;;;;2.10;1.90;;;;;;;;;;5051031;28;20025;-59
2023/03/09 14:20:21;;;;;;;2.92;2.13;;;;;;;;;;5050514;28;20047;-60
2023/03/09 14:22:47;;;;;;;2.75;2.00;;;;;;;;;;5050731;28;20492;-60
2023/03/09 14:25:25;;;;;;;2.00;1.80;;;;;;;;;;5050828;28;20029;-60
2023/03/09 14:27:52;;;;;;;2.75;1.67;;;;;;;;;;5050292;28;20132;-59
2023/03/09 14:30:31;;;;;;;2.72;2.05;;;;;;;;;;5050551;28;20033;-59
2023/03/09 14:33:03;;;;;;;2.65;2.40;;;;;;;;;;5050749;28;20028;-59
2023/03/09 14:35:37;;;;;;;3.05;1.75;;;;;;;;;;5050329;28;20065;-60
2023/03/09 14:38:15;;;;;;;3.80;2.50;;;;;;;;;;5050320;28;20029;-60
2023/03/09 14:40:41;;;;;;;2.17;2.03;;;;;;;;;;5050758;28;20047;-59
2023/03/09 14:43:25;;;;;;;3.47;2.08;;;;;;;;;;5050382;28;20117;-60
2023/03/09 14:45:51;;;;;;;3.78;2.15;;;;;;;;;;5050368;28;20452;-60
2023/03/09 14:48:17;;;;;;;4.80;2.03;;;;;;;;;;5048983;28;20037;-59
2023/03/09 14:50:43;;;;;;;3.67;2.00;;;;;;;;;;5051230;28;20867;-60
2023/03/09 14:53:14;;;;;;;2.63;2.17;;;;;;;;;;5054557;28;20021;-59
2023/03/09 14:55:40;;;;;;;2.10;1.90;;;;;;;;;;5054670;28;20469;-59
2023/03/09 14:58:12;;;;;;;2.45;2.15;;;;;;;;;;5054741;28;20040;-60